createdAt,value
2018-03-07T00:00:22.059Z,133.50
2018-03-07T00:01:21.941Z,135.30
2018-03-07T00:02:21.843Z,137.10
2018-03-07T00:03:21.722Z,129.20
2018-03-07T00:04:21.622Z,139.60
2018-03-07T00:05:21.517Z,136.80
2018-03-07T00:06:21.403Z,141.70
2018-03-07T00:07:21.301Z,133.20
2018-03-07T00:08:21.196Z,137.10
2018-03-07T00:09:21.094Z,136.10
2018-03-07T00:10:20.996Z,130.70
2018-03-07T00:11:20.879Z,135.80
2018-03-07T00:12:20.769Z,131.60
2018-03-07T00:13:20.665Z,146.10
2018-03-07T00:14:20.557Z,129.60
2018-03-07T00:15:20.458Z,131.60
2018-03-07T00:16:20.354Z,140.70
2018-03-07T00:17:20.247Z,134.00
2018-03-07T00:18:20.151Z,130.70
2018-03-07T00:19:20.029Z,128.20
2018-03-07T00:20:19.933Z,131.80
2018-03-07T00:21:19.813Z,127.80
2018-03-07T00:22:19.706Z,135.50
2018-03-07T00:23:19.606Z,134.80
2018-03-07T00:24:19.504Z,138.40
2018-03-07T00:25:19.405Z,131.10
2018-03-07T00:26:19.286Z,138.90
2018-03-07T00:27:19.181Z,137.80
2018-03-07T00:28:19.084Z,130.70
2018-03-07T00:29:18.985Z,136.20
2018-03-07T00:30:18.857Z,135.80
2018-03-07T00:31:18.758Z,144.80
2018-03-07T00:32:18.648Z,135.60
2018-03-07T00:33:18.549Z,131.90
2018-03-07T00:34:18.449Z,129.70
2018-03-07T00:35:18.331Z,128.40
2018-03-07T00:36:18.231Z,140.30
2018-03-07T00:37:18.121Z,129.50
2018-03-07T00:38:18.017Z,122.20
2018-03-07T00:39:17.918Z,127.80
2018-03-07T00:40:17.800Z,132.20
2018-03-07T00:41:17.697Z,129.30
2018-03-07T00:42:17.594Z,127.80
2018-03-07T00:43:17.491Z,128.70
2018-03-07T00:44:17.388Z,136.80
2018-03-07T00:45:17.267Z,125.60
2018-03-07T00:46:17.170Z,129.60
2018-03-07T00:47:17.076Z,134.40
2018-03-07T00:48:16.963Z,129.20
2018-03-07T00:49:16.860Z,134.60
2018-03-07T00:50:16.744Z,135.80
2018-03-07T00:51:16.636Z,138.50
2018-03-07T00:52:16.536Z,138.70
2018-03-07T00:53:16.428Z,131.20
2018-03-07T00:54:16.316Z,138.50
2018-03-07T00:55:16.218Z,137.90
2018-03-07T00:56:16.106Z,136.70
2018-03-07T00:57:16.009Z,127.20
2018-03-07T00:58:15.904Z,137.70
2018-03-07T00:59:15.786Z,141.90
2018-03-07T01:00:15.682Z,137.90
2018-03-07T01:01:15.582Z,129.20
2018-03-07T01:02:15.480Z,131.00
2018-03-07T01:03:15.372Z,136.40
2018-03-07T01:04:15.270Z,140.80
2018-03-07T01:05:15.163Z,149.70
2018-03-07T01:06:15.050Z,139.20
2018-03-07T01:07:14.949Z,146.00
2018-03-07T01:08:14.885Z,143.00
2018-03-07T01:09:14.731Z,148.30
2018-03-07T01:10:14.628Z,143.60
2018-03-07T01:11:14.524Z,150.40
2018-03-07T01:12:14.419Z,146.40
2018-03-07T01:13:14.320Z,138.00
2018-03-07T01:14:14.194Z,145.10
2018-03-07T01:15:14.097Z,132.10
2018-03-07T01:16:13.988Z,145.90
2018-03-07T01:17:13.896Z,144.00
2018-03-07T01:18:13.779Z,146.10
2018-03-07T01:19:13.675Z,153.50
2018-03-07T01:20:13.573Z,149.40
2018-03-07T01:21:13.464Z,152.90
2018-03-07T01:22:13.362Z,147.20
2018-03-07T01:23:13.259Z,147.30
2018-03-07T01:24:13.138Z,147.40
2018-03-07T01:25:13.038Z,140.20
2018-03-07T01:26:12.938Z,143.00
2018-03-07T01:27:13.082Z,143.20
2018-03-07T01:28:12.733Z,156.90
2018-03-07T01:29:12.613Z,149.70
2018-03-07T01:30:12.507Z,149.60
2018-03-07T01:31:12.409Z,155.70
2018-03-07T01:32:12.302Z,144.80
2018-03-07T01:33:12.206Z,151.60
2018-03-07T01:34:12.086Z,157.60
2018-03-07T01:35:11.977Z,149.50
2018-03-07T01:36:11.881Z,150.70
2018-03-07T01:37:12.018Z,151.40
2018-03-07T01:38:11.659Z,167.30
2018-03-07T01:39:11.558Z,160.90
2018-03-07T01:40:11.449Z,168.50
2018-03-07T01:41:11.354Z,159.80
2018-03-07T01:42:11.246Z,158.50
2018-03-07T01:43:11.131Z,150.80
2018-03-07T01:44:11.030Z,164.60
2018-03-07T01:45:10.926Z,165.30
2018-03-07T01:46:10.814Z,162.10
2018-03-07T01:47:10.715Z,161.20
2018-03-07T01:48:10.613Z,166.80
2018-03-07T01:49:10.509Z,166.10
2018-03-07T01:50:10.399Z,159.40
2018-03-07T01:51:10.290Z,167.80
2018-03-07T01:52:10.190Z,175.10
2018-03-07T01:53:10.070Z,170.70
2018-03-07T01:54:09.965Z,166.50
2018-03-07T01:55:09.869Z,169.40
2018-03-07T01:56:09.756Z,165.10
2018-03-07T01:57:09.662Z,152.50
2018-03-07T01:58:09.542Z,154.60
2018-03-07T01:59:09.435Z,166.20
2018-03-07T02:00:09.339Z,160.10
2018-03-07T02:01:09.230Z,158.80
2018-03-07T02:02:09.131Z,169.20
2018-03-07T02:03:09.015Z,166.50
2018-03-07T02:04:08.904Z,176.30
2018-03-07T02:05:08.826Z,169.00
2018-03-07T02:06:08.701Z,168.20
2018-03-07T02:07:08.845Z,195.10
2018-03-07T02:08:08.531Z,174.10
2018-03-07T02:09:08.382Z,177.50
2018-03-07T02:10:08.286Z,189.30
2018-03-07T02:11:08.174Z,186.00
2018-03-07T02:12:08.066Z,195.10
2018-03-07T02:13:07.957Z,198.30
2018-03-07T02:14:07.853Z,193.20
2018-03-07T02:15:07.746Z,193.80
2018-03-07T02:16:07.647Z,202.00
2018-03-07T02:17:07.791Z,196.80
2018-03-07T02:18:07.424Z,199.40
2018-03-07T02:19:07.322Z,202.70
2018-03-07T02:20:07.217Z,191.50
2018-03-07T02:21:07.116Z,194.30
2018-03-07T02:22:07.013Z,198.40
2018-03-07T02:23:06.912Z,205.30
2018-03-07T02:24:06.793Z,194.80
2018-03-07T02:25:06.684Z,187.80
2018-03-07T02:26:06.582Z,180.80
2018-03-07T02:27:06.482Z,182.20
2018-03-07T02:28:06.378Z,182.50
2018-03-07T02:29:06.265Z,205.20
2018-03-07T02:30:06.162Z,210.00
2018-03-07T02:31:06.054Z,194.70
2018-03-07T02:32:05.959Z,225.80
2018-03-07T02:33:05.849Z,215.00
2018-03-07T02:34:05.730Z,213.50
2018-03-07T02:35:05.633Z,196.30
2018-03-07T02:36:05.526Z,201.20
2018-03-07T02:37:05.424Z,206.20
2018-03-07T02:38:05.320Z,196.50
2018-03-07T02:39:05.206Z,212.70
2018-03-07T02:40:05.104Z,208.10
2018-03-07T02:41:04.999Z,208.60
2018-03-07T02:42:04.894Z,214.40
2018-03-07T02:43:04.794Z,209.50
2018-03-07T02:44:04.674Z,213.40
2018-03-07T02:45:04.572Z,202.60
2018-03-07T02:46:04.475Z,204.20
2018-03-07T02:47:04.362Z,218.90
2018-03-07T02:48:04.264Z,226.00
2018-03-07T02:49:04.151Z,213.40
2018-03-07T02:50:04.046Z,195.70
2018-03-07T02:51:03.946Z,217.10
2018-03-07T02:52:03.834Z,212.10
2018-03-07T02:53:03.737Z,203.30
2018-03-07T02:54:03.624Z,204.20
2018-03-07T02:55:03.512Z,218.20
2018-03-07T02:56:03.410Z,236.10
2018-03-07T02:57:03.311Z,239.20
2018-03-07T02:58:03.203Z,232.50
2018-03-07T02:59:03.094Z,238.10
2018-03-07T03:00:03.002Z,225.70
2018-03-07T03:01:02.885Z,238.30
2018-03-07T03:02:03.081Z,214.00
2018-03-07T03:03:02.676Z,232.80
2018-03-07T03:04:02.561Z,237.80
2018-03-07T03:05:02.451Z,230.50
2018-03-07T03:06:02.356Z,242.00
2018-03-07T03:07:02.250Z,231.20
2018-03-07T03:08:02.158Z,239.90
2018-03-07T03:09:02.043Z,245.50
2018-03-07T03:10:01.924Z,224.10
2018-03-07T03:11:01.826Z,224.20
2018-03-07T03:12:01.720Z,228.80
2018-03-07T03:13:01.622Z,235.80
2018-03-07T03:14:01.518Z,227.90
2018-03-07T03:15:01.396Z,248.30
2018-03-07T03:16:01.299Z,241.20
2018-03-07T03:17:01.188Z,251.60
2018-03-07T03:18:01.085Z,252.40
2018-03-07T03:19:00.986Z,240.60
2018-03-07T03:20:00.867Z,246.00
2018-03-07T03:21:00.771Z,237.10
2018-03-07T03:22:00.666Z,231.00
2018-03-07T03:23:00.557Z,225.60
2018-03-07T03:24:00.457Z,231.70
2018-03-07T03:25:00.343Z,226.90
2018-03-07T03:26:00.234Z,220.20
2018-03-07T03:27:00.139Z,231.80
2018-03-07T03:28:00.026Z,217.30
2018-03-07T03:28:59.930Z,220.70
2018-03-07T03:29:59.821Z,229.70
2018-03-07T03:30:59.708Z,230.10
2018-03-07T03:31:59.607Z,206.50
2018-03-07T03:32:59.502Z,212.70
2018-03-07T03:33:59.398Z,221.70
2018-03-07T03:34:59.295Z,212.00
2018-03-07T03:35:59.174Z,223.20
2018-03-07T03:36:59.079Z,224.00
2018-03-07T03:37:58.970Z,211.20
2018-03-07T03:38:58.877Z,214.00
2018-03-07T03:39:58.769Z,225.60
2018-03-07T03:40:58.646Z,224.00
2018-03-07T03:41:58.791Z,224.90
2018-03-07T03:42:58.442Z,239.40
2018-03-07T03:43:58.341Z,237.50
2018-03-07T03:44:58.238Z,237.90
2018-03-07T03:45:58.125Z,254.10
2018-03-07T03:46:58.013Z,257.40
2018-03-07T03:47:57.921Z,257.10
2018-03-07T03:48:57.810Z,269.00
2018-03-07T03:49:57.702Z,256.20
2018-03-07T03:50:57.597Z,267.80
2018-03-07T03:51:57.486Z,263.70
2018-03-07T03:52:57.386Z,256.00
2018-03-07T03:53:57.284Z,257.00
2018-03-07T03:54:57.176Z,274.50
2018-03-07T03:55:57.076Z,265.00
2018-03-07T03:56:56.973Z,266.60
2018-03-07T03:57:56.856Z,275.40
2018-03-07T03:58:56.755Z,255.50
2018-03-07T03:59:56.647Z,255.20
2018-03-07T04:00:56.546Z,268.20
2018-03-07T04:01:56.434Z,246.20
2018-03-07T04:02:56.328Z,276.90
2018-03-07T04:03:56.224Z,267.30
2018-03-07T04:04:56.119Z,268.40
2018-03-07T04:05:56.018Z,266.60
2018-03-07T04:06:56.153Z,250.50
2018-03-07T04:07:55.804Z,271.10
2018-03-07T04:08:55.699Z,270.30
2018-03-07T04:09:55.590Z,246.30
2018-03-07T04:10:55.489Z,251.00
2018-03-07T04:11:55.387Z,271.60
2018-03-07T04:12:55.266Z,258.40
2018-03-07T04:13:55.166Z,279.80
2018-03-07T04:14:55.064Z,259.80
2018-03-07T04:15:54.958Z,266.20
2018-03-07T04:16:54.860Z,265.50
2018-03-07T04:17:54.799Z,280.80
2018-03-07T04:18:54.631Z,265.60
2018-03-07T04:19:54.534Z,275.20
2018-03-07T04:20:54.428Z,275.40
2018-03-07T04:21:54.328Z,273.00
2018-03-07T04:22:54.212Z,258.90
2018-03-07T04:23:54.102Z,265.80
2018-03-07T04:24:54.004Z,263.40
2018-03-07T04:25:53.899Z,269.60
2018-03-07T04:26:54.098Z,261.80
2018-03-07T04:27:53.682Z,269.30
2018-03-07T04:28:53.572Z,268.80
2018-03-07T04:29:53.469Z,275.80
2018-03-07T04:30:53.370Z,262.60
2018-03-07T04:31:53.267Z,276.30
2018-03-07T04:32:53.153Z,283.80
2018-03-07T04:33:53.054Z,254.20
2018-03-07T04:34:52.942Z,290.20
2018-03-07T04:35:52.845Z,288.70
2018-03-07T04:36:52.975Z,269.40
2018-03-07T04:37:52.621Z,267.60
2018-03-07T04:38:52.520Z,267.00
2018-03-07T04:39:52.413Z,279.60
2018-03-07T04:40:52.313Z,270.30
2018-03-07T04:41:52.211Z,296.30
2018-03-07T04:42:52.097Z,261.80
2018-03-07T04:43:51.994Z,266.00
2018-03-07T04:44:51.886Z,269.40
2018-03-07T04:45:51.781Z,255.60
2018-03-07T04:46:51.685Z,266.60
2018-03-07T04:47:51.560Z,271.80
2018-03-07T04:48:51.460Z,266.50
2018-03-07T04:49:51.363Z,264.70
2018-03-07T04:50:51.251Z,259.70
2018-03-07T04:51:51.153Z,256.70
2018-03-07T04:52:51.037Z,255.60
2018-03-07T04:53:50.930Z,255.20
2018-03-07T04:54:50.831Z,250.50
2018-03-07T04:55:50.728Z,312.60
2018-03-07T04:56:50.926Z,261.70
2018-03-07T04:57:50.506Z,257.90
2018-03-07T04:58:50.401Z,260.30
2018-03-07T04:59:50.299Z,269.40
2018-03-07T05:00:50.195Z,271.60
2018-03-07T05:01:50.088Z,255.50
2018-03-07T05:02:49.981Z,263.00
2018-03-07T05:03:49.876Z,269.00
2018-03-07T05:04:49.774Z,272.50
2018-03-07T05:05:49.668Z,264.70
2018-03-07T05:06:49.815Z,266.40
2018-03-07T05:07:49.447Z,266.40
2018-03-07T05:08:49.363Z,265.70
2018-03-07T05:09:49.238Z,261.30
2018-03-07T05:10:49.138Z,262.60
2018-03-07T05:11:49.035Z,251.50
2018-03-07T05:12:48.921Z,271.00
2018-03-07T05:13:48.817Z,263.10
2018-03-07T05:14:48.714Z,261.30
2018-03-07T05:15:48.607Z,271.20
2018-03-07T05:16:48.508Z,266.10
2018-03-07T05:17:48.393Z,266.00
2018-03-07T05:18:48.301Z,268.50
2018-03-07T05:19:48.188Z,275.90
2018-03-07T05:20:48.076Z,271.00
2018-03-07T05:21:47.968Z,255.90
2018-03-07T05:22:47.864Z,266.50
2018-03-07T05:23:47.755Z,256.00
2018-03-07T05:24:47.659Z,250.80
2018-03-07T05:25:47.553Z,258.50
2018-03-07T05:26:47.435Z,266.10
2018-03-07T05:27:47.337Z,271.10
2018-03-07T05:28:47.228Z,263.50
2018-03-07T05:29:47.128Z,270.60
2018-03-07T05:30:47.038Z,266.50
2018-03-07T05:31:47.158Z,256.80
2018-03-07T05:32:46.806Z,250.10
2018-03-07T05:33:46.700Z,248.60
2018-03-07T05:34:46.592Z,229.40
2018-03-07T05:35:46.495Z,244.70
2018-03-07T05:36:46.376Z,253.40
2018-03-07T05:37:46.273Z,235.30
2018-03-07T05:38:46.171Z,248.80
2018-03-07T05:39:46.063Z,238.60
2018-03-07T05:40:45.962Z,253.40
2018-03-07T05:41:45.848Z,240.70
2018-03-07T05:42:45.740Z,232.70
2018-03-07T05:43:45.643Z,238.80
2018-03-07T05:44:45.539Z,228.00
2018-03-07T05:45:45.435Z,232.20
2018-03-07T05:46:45.324Z,226.60
2018-03-07T05:47:45.226Z,238.10
2018-03-07T05:48:45.115Z,223.30
2018-03-07T05:49:45.012Z,235.50
2018-03-07T05:50:44.903Z,221.30
2018-03-07T05:51:44.795Z,241.70
2018-03-07T05:52:44.689Z,250.70
2018-03-07T05:53:44.579Z,222.30
2018-03-07T05:54:44.480Z,241.90
2018-03-07T05:55:44.377Z,234.10
2018-03-07T05:56:44.265Z,243.00
2018-03-07T05:57:44.159Z,245.60
2018-03-07T05:58:44.063Z,257.90
2018-03-07T05:59:43.969Z,252.60
2018-03-07T06:00:43.847Z,264.40
2018-03-07T06:01:43.978Z,252.80
2018-03-07T06:02:43.629Z,258.00
2018-03-07T06:03:43.521Z,266.10
2018-03-07T06:04:43.421Z,275.90
2018-03-07T06:05:43.326Z,251.20
2018-03-07T06:06:43.199Z,260.20
2018-03-07T06:07:43.101Z,258.20
2018-03-07T06:08:42.992Z,266.40
2018-03-07T06:09:42.893Z,262.70
2018-03-07T06:10:42.791Z,256.30
2018-03-07T06:11:42.688Z,236.50
2018-03-07T06:12:42.570Z,238.90
2018-03-07T06:13:42.471Z,225.50
2018-03-07T06:14:42.359Z,236.40
2018-03-07T06:15:42.261Z,250.50
2018-03-07T06:16:42.155Z,218.50
2018-03-07T06:17:42.039Z,240.00
2018-03-07T06:18:41.940Z,247.20
2018-03-07T06:19:41.833Z,237.70
2018-03-07T06:20:41.730Z,229.50
2018-03-07T06:21:41.866Z,220.50
2018-03-07T06:22:41.508Z,223.90
2018-03-07T06:23:41.414Z,217.20
2018-03-07T06:24:41.302Z,216.00
2018-03-07T06:25:41.199Z,223.40
2018-03-07T06:26:41.090Z,219.90
2018-03-07T06:27:40.979Z,227.70
2018-03-07T06:28:40.886Z,238.70
2018-03-07T06:29:40.779Z,252.50
2018-03-07T06:30:40.674Z,231.90
2018-03-07T06:31:40.575Z,233.50
2018-03-07T06:32:40.452Z,232.10
2018-03-07T06:33:40.348Z,232.90
2018-03-07T06:34:40.252Z,230.90
2018-03-07T06:35:40.146Z,229.70
2018-03-07T06:36:40.042Z,235.70
2018-03-07T06:37:39.926Z,229.50
2018-03-07T06:38:39.818Z,239.60
2018-03-07T06:39:39.721Z,240.80
2018-03-07T06:40:39.611Z,224.70
2018-03-07T06:41:39.511Z,237.50
2018-03-07T06:42:39.414Z,227.60
2018-03-07T06:43:39.294Z,215.60
2018-03-07T06:44:39.190Z,219.60
2018-03-07T06:45:39.086Z,219.70
2018-03-07T06:46:38.980Z,221.00
2018-03-07T06:47:38.878Z,214.60
2018-03-07T06:48:38.766Z,215.10
2018-03-07T06:49:38.655Z,200.10
2018-03-07T06:50:38.555Z,210.20
2018-03-07T06:51:38.454Z,215.20
2018-03-07T06:52:38.348Z,197.60
2018-03-07T06:53:38.255Z,197.00
2018-03-07T06:54:38.126Z,203.50
2018-03-07T06:55:38.031Z,186.30
2018-03-07T06:56:37.925Z,189.00
2018-03-07T06:57:37.819Z,198.90
2018-03-07T06:58:37.718Z,191.60
2018-03-07T06:59:37.615Z,193.80
2018-03-07T07:00:37.497Z,205.80
2018-03-07T07:01:37.395Z,209.60
2018-03-07T07:02:37.286Z,197.10
2018-03-07T07:03:37.190Z,189.40
2018-03-07T07:04:37.082Z,207.00
2018-03-07T07:05:36.968Z,198.30
2018-03-07T07:06:36.868Z,196.10
2018-03-07T07:07:36.760Z,202.80
2018-03-07T07:08:36.661Z,200.40
2018-03-07T07:09:36.560Z,207.80
2018-03-07T07:10:36.450Z,206.90
2018-03-07T07:11:36.381Z,215.30
2018-03-07T07:12:36.229Z,212.80
2018-03-07T07:13:36.125Z,201.00
2018-03-07T07:14:36.029Z,202.40
2018-03-07T07:15:35.919Z,203.00
2018-03-07T07:16:35.815Z,193.40
2018-03-07T07:17:35.700Z,192.10
2018-03-07T07:18:35.596Z,198.40
2018-03-07T07:19:35.497Z,193.20
2018-03-07T07:20:35.390Z,185.70
2018-03-07T07:21:35.291Z,196.50
2018-03-07T07:22:35.188Z,211.50
2018-03-07T07:23:35.070Z,203.10
2018-03-07T07:24:34.963Z,190.10
2018-03-07T07:25:34.860Z,187.10
2018-03-07T07:26:34.757Z,181.00
2018-03-07T07:27:34.658Z,192.50
2018-03-07T07:28:34.554Z,192.60
2018-03-07T07:29:34.449Z,207.20
2018-03-07T07:30:34.335Z,194.40
2018-03-07T07:31:34.230Z,201.50
2018-03-07T07:32:34.130Z,188.80
2018-03-07T07:33:34.026Z,187.50
2018-03-07T07:34:33.918Z,183.70
2018-03-07T07:35:33.820Z,185.60
2018-03-07T07:36:33.712Z,179.90
2018-03-07T07:37:33.596Z,185.70
2018-03-07T07:38:33.496Z,194.80
2018-03-07T07:39:33.388Z,173.90
2018-03-07T07:40:33.286Z,180.80
2018-03-07T07:41:33.183Z,156.40
2018-03-07T07:42:33.086Z,179.90
2018-03-07T07:43:32.980Z,165.90
2018-03-07T07:44:32.860Z,170.30
2018-03-07T07:45:32.758Z,170.10
2018-03-07T07:46:32.655Z,169.80
2018-03-07T07:47:32.558Z,167.50
2018-03-07T07:48:32.448Z,171.30
2018-03-07T07:49:32.344Z,166.80
2018-03-07T07:50:32.240Z,174.60
2018-03-07T07:51:32.129Z,155.90
2018-03-07T07:52:32.021Z,162.40
2018-03-07T07:53:31.920Z,161.60
2018-03-07T07:54:31.853Z,153.30
2018-03-07T07:55:31.711Z,154.20
2018-03-07T07:56:31.611Z,152.30
2018-03-07T07:57:31.504Z,151.00
2018-03-07T07:58:31.403Z,154.40
2018-03-07T07:59:31.304Z,143.50
2018-03-07T08:00:31.183Z,141.70
2018-03-07T08:01:31.083Z,133.60
2018-03-07T08:02:30.977Z,128.60
2018-03-07T08:03:30.872Z,138.30
2018-03-07T08:04:30.771Z,135.20
2018-03-07T08:05:30.669Z,147.20
2018-03-07T08:06:30.562Z,150.80
2018-03-07T08:07:30.471Z,138.70
2018-03-07T08:08:30.356Z,124.90
2018-03-07T08:09:30.249Z,132.80
2018-03-07T08:10:30.136Z,140.60
2018-03-07T08:11:30.033Z,123.60
2018-03-07T08:12:29.942Z,125.90
2018-03-07T08:13:29.827Z,136.60
2018-03-07T08:14:29.741Z,140.60
2018-03-07T08:15:29.622Z,139.10
2018-03-07T08:16:29.521Z,148.00
2018-03-07T08:17:29.414Z,130.60
2018-03-07T08:18:29.311Z,126.90
2018-03-07T08:19:29.211Z,130.20
2018-03-07T08:20:29.106Z,125.50
2018-03-07T08:21:28.988Z,134.10
2018-03-07T08:22:28.889Z,117.20
2018-03-07T08:23:28.781Z,119.80
2018-03-07T08:24:28.678Z,113.50
2018-03-07T08:25:28.577Z,115.00
2018-03-07T08:26:28.475Z,124.30
2018-03-07T08:27:28.368Z,118.60
2018-03-07T08:28:28.268Z,112.60
2018-03-07T08:29:28.165Z,119.00
2018-03-07T08:30:28.058Z,98.00
2018-03-07T08:31:27.954Z,107.10
2018-03-07T08:32:27.843Z,96.90
2018-03-07T08:33:27.735Z,98.60
2018-03-07T08:34:27.631Z,91.80
2018-03-07T08:35:27.529Z,103.70
2018-03-07T08:36:27.424Z,99.60
2018-03-07T08:37:27.321Z,98.50
2018-03-07T08:38:27.237Z,97.00
2018-03-07T08:39:27.118Z,95.70
2018-03-07T08:40:27.011Z,99.70
2018-03-07T08:41:26.912Z,114.90
2018-03-07T08:42:26.809Z,115.10
2018-03-07T08:43:26.706Z,125.40
2018-03-07T08:44:26.591Z,119.10
2018-03-07T08:45:26.482Z,121.70
2018-03-07T08:46:26.380Z,119.40
2018-03-07T08:47:26.276Z,121.60
2018-03-07T08:48:26.174Z,126.70
2018-03-07T08:49:26.070Z,111.90
2018-03-07T08:50:26.010Z,112.30
2018-03-07T08:51:25.867Z,113.40
2018-03-07T08:52:25.760Z,118.50
2018-03-07T08:53:25.660Z,110.20
2018-03-07T08:54:25.574Z,130.40
2018-03-07T08:55:25.440Z,120.70
2018-03-07T08:56:25.336Z,125.50
2018-03-07T08:57:25.234Z,129.30
2018-03-07T08:58:25.128Z,116.60
2018-03-07T08:59:25.058Z,114.90
2018-03-07T09:00:24.921Z,114.20
2018-03-07T09:01:25.069Z,103.50
2018-03-07T09:02:24.718Z,102.30
2018-03-07T09:03:24.613Z,103.00
2018-03-07T09:04:24.511Z,99.40
2018-03-07T09:05:24.396Z,94.80
2018-03-07T09:06:24.290Z,96.20
2018-03-07T09:07:24.194Z,85.90
2018-03-07T09:08:24.083Z,86.50
2018-03-07T09:09:23.979Z,88.50
2018-03-07T09:10:23.875Z,81.40
2018-03-07T09:11:23.776Z,82.40
2018-03-07T09:12:23.669Z,78.20
2018-03-07T09:13:23.565Z,81.60
2018-03-07T09:14:23.462Z,82.40
2018-03-07T09:15:23.358Z,80.20
2018-03-07T09:16:23.256Z,83.40
2018-03-07T09:17:23.140Z,74.50
2018-03-07T09:18:23.037Z,78.10
2018-03-07T09:19:22.936Z,88.90
2018-03-07T09:20:22.829Z,77.90
2018-03-07T09:21:22.725Z,78.60
2018-03-07T09:22:22.622Z,84.90
2018-03-07T09:23:22.519Z,90.80
2018-03-07T09:24:22.417Z,82.00
2018-03-07T09:25:22.313Z,84.80
2018-03-07T09:26:22.214Z,81.50
2018-03-07T09:27:22.105Z,81.40
2018-03-07T09:28:22.003Z,79.10
2018-03-07T09:29:21.891Z,83.50
2018-03-07T09:30:21.788Z,71.30
2018-03-07T09:31:21.680Z,79.90
2018-03-07T09:32:21.578Z,81.40
2018-03-07T09:33:21.473Z,82.20
2018-03-07T09:34:21.375Z,83.40
2018-03-07T09:35:21.271Z,86.50
2018-03-07T09:36:21.164Z,76.50
2018-03-07T09:37:21.065Z,86.50
2018-03-07T09:38:20.961Z,81.00
2018-03-07T09:39:20.853Z,67.00
2018-03-07T09:40:20.751Z,69.10
2018-03-07T09:41:20.651Z,62.80
2018-03-07T09:42:20.543Z,68.20
2018-03-07T09:43:20.430Z,64.10
2018-03-07T09:44:20.329Z,61.50
2018-03-07T09:45:20.222Z,57.10
2018-03-07T09:46:20.119Z,67.50
2018-03-07T09:47:20.014Z,59.60
2018-03-07T09:48:19.912Z,65.60
2018-03-07T09:49:19.808Z,63.20
2018-03-07T09:50:19.708Z,70.60
2018-03-07T09:51:19.604Z,68.30
2018-03-07T09:52:19.502Z,71.70
2018-03-07T09:53:19.398Z,67.00
2018-03-07T09:54:19.291Z,66.60
2018-03-07T09:55:19.192Z,72.30
2018-03-07T09:56:19.193Z,60.60
2018-03-07T09:57:18.986Z,57.70
2018-03-07T09:58:18.879Z,58.90
2018-03-07T09:59:18.778Z,57.70
2018-03-07T10:00:18.678Z,51.90
2018-03-07T10:01:18.571Z,56.50
2018-03-07T10:02:18.468Z,53.50
2018-03-07T10:03:18.365Z,52.70
2018-03-07T10:04:18.257Z,59.20
2018-03-07T10:05:18.155Z,49.30
2018-03-07T10:06:18.052Z,56.00
2018-03-07T10:07:17.949Z,61.90
2018-03-07T10:08:17.846Z,58.40
2018-03-07T10:09:17.759Z,63.40
2018-03-07T10:10:17.651Z,49.10
2018-03-07T10:11:17.538Z,55.00
2018-03-07T10:12:17.433Z,51.90
2018-03-07T10:13:17.329Z,56.10
2018-03-07T10:14:17.229Z,52.70
2018-03-07T10:15:17.121Z,55.20
2018-03-07T10:16:17.019Z,56.10
2018-03-07T10:17:16.909Z,54.10
2018-03-07T10:18:16.804Z,54.80
2018-03-07T10:19:16.696Z,55.90
2018-03-07T10:20:16.594Z,53.50
2018-03-07T10:21:16.491Z,56.50
2018-03-07T10:22:16.391Z,51.30
2018-03-07T10:23:16.284Z,48.60
2018-03-07T10:24:16.184Z,49.80
2018-03-07T10:25:16.125Z,54.10
2018-03-07T10:26:15.974Z,51.30
2018-03-07T10:27:15.875Z,48.50
2018-03-07T10:28:15.771Z,50.60
2018-03-07T10:29:15.667Z,45.10
2018-03-07T10:30:15.573Z,44.40
2018-03-07T10:31:15.457Z,41.30
2018-03-07T10:32:15.358Z,45.00
2018-03-07T10:33:15.254Z,45.60
2018-03-07T10:34:15.170Z,49.90
2018-03-07T10:35:15.044Z,49.10
2018-03-07T10:36:14.940Z,44.50
2018-03-07T10:37:14.836Z,44.70
2018-03-07T10:38:14.733Z,41.70
2018-03-07T10:39:14.635Z,41.10
2018-03-07T10:40:14.528Z,42.40
2018-03-07T10:41:14.427Z,40.10
2018-03-07T10:42:14.321Z,45.30
2018-03-07T10:43:14.217Z,45.20
2018-03-07T10:44:14.113Z,41.20
2018-03-07T10:45:14.014Z,44.60
2018-03-07T10:46:13.908Z,48.50
2018-03-07T10:47:13.811Z,45.20
2018-03-07T10:48:13.705Z,43.40
2018-03-07T10:49:13.601Z,44.90
2018-03-07T10:50:13.494Z,40.60
2018-03-07T10:51:13.391Z,39.80
2018-03-07T10:52:13.312Z,45.20
2018-03-07T10:53:13.187Z,43.40
2018-03-07T10:54:13.081Z,42.30
2018-03-07T10:55:12.981Z,41.10
2018-03-07T10:56:12.878Z,42.60
2018-03-07T10:57:12.770Z,41.30
2018-03-07T10:58:12.667Z,42.10
2018-03-07T10:59:12.564Z,40.80
2018-03-07T11:00:12.464Z,42.50
2018-03-07T11:01:12.358Z,41.40
2018-03-07T11:02:12.258Z,42.50
2018-03-07T11:03:12.157Z,44.50
2018-03-07T11:04:12.051Z,40.40
2018-03-07T11:05:11.944Z,41.40
2018-03-07T11:06:11.845Z,40.10
2018-03-07T11:07:11.741Z,42.50
2018-03-07T11:08:11.634Z,47.70
2018-03-07T11:09:11.530Z,47.70
2018-03-07T11:10:11.430Z,42.70
2018-03-07T11:11:11.323Z,46.10
2018-03-07T11:12:11.221Z,49.50
2018-03-07T11:13:11.122Z,48.50
2018-03-07T11:14:11.014Z,41.20
2018-03-07T11:15:10.910Z,39.80
2018-03-07T11:16:10.822Z,43.00
2018-03-07T11:17:10.703Z,39.70
2018-03-07T11:18:10.600Z,40.10
2018-03-07T11:19:10.501Z,41.80
2018-03-07T11:20:10.399Z,42.70
2018-03-07T11:21:10.290Z,41.90
2018-03-07T11:22:10.191Z,43.70
2018-03-07T11:23:10.088Z,38.30
2018-03-07T11:24:09.982Z,40.00
2018-03-07T11:25:09.881Z,36.60
2018-03-07T11:26:09.775Z,36.30
2018-03-07T11:27:09.687Z,34.10
2018-03-07T11:28:09.582Z,36.10
2018-03-07T11:29:09.476Z,36.80
2018-03-07T11:30:09.374Z,38.80
2018-03-07T11:31:09.270Z,38.20
2018-03-07T11:32:09.166Z,39.70
2018-03-07T11:33:09.062Z,40.80
2018-03-07T11:34:08.959Z,38.70
2018-03-07T11:35:08.882Z,39.10
2018-03-07T11:36:08.752Z,49.50
2018-03-07T11:37:08.649Z,37.00
2018-03-07T11:38:08.546Z,36.30
2018-03-07T11:39:08.446Z,36.80
2018-03-07T11:40:08.394Z,43.30
2018-03-07T11:41:08.238Z,37.40
2018-03-07T11:42:08.145Z,39.70
2018-03-07T11:43:08.033Z,37.40
2018-03-07T11:44:07.930Z,40.70
2018-03-07T11:45:07.825Z,45.30
2018-03-07T11:46:07.720Z,40.40
2018-03-07T11:47:07.622Z,36.80
2018-03-07T11:48:07.514Z,38.50
2018-03-07T11:49:07.409Z,37.60
2018-03-07T11:50:07.311Z,35.70
2018-03-07T11:51:07.203Z,36.00
2018-03-07T11:52:07.101Z,35.70
2018-03-07T11:53:06.997Z,38.50
2018-03-07T11:54:06.893Z,42.10
2018-03-07T11:55:06.802Z,41.30
2018-03-07T11:56:06.699Z,42.30
2018-03-07T11:57:06.587Z,40.20
2018-03-07T11:58:06.480Z,36.20
2018-03-07T11:59:06.376Z,39.60
2018-03-07T12:00:06.273Z,41.90
2018-03-07T12:01:06.174Z,42.20
2018-03-07T12:02:06.070Z,40.50
2018-03-07T12:03:05.966Z,35.50
2018-03-07T12:04:05.860Z,36.40
2018-03-07T12:05:05.757Z,37.50
2018-03-07T12:06:05.658Z,42.80
2018-03-07T12:07:05.554Z,39.70
2018-03-07T12:08:05.451Z,37.70
2018-03-07T12:09:05.347Z,37.10
2018-03-07T12:10:05.240Z,39.30
2018-03-07T12:11:05.138Z,37.70
2018-03-07T12:12:05.050Z,38.30
2018-03-07T12:13:04.941Z,44.60
2018-03-07T12:14:04.840Z,39.90
2018-03-07T12:15:04.740Z,36.00
2018-03-07T12:16:04.639Z,39.20
2018-03-07T12:17:04.529Z,39.40
2018-03-07T12:18:04.425Z,37.80
2018-03-07T12:19:04.322Z,37.40
2018-03-07T12:20:04.220Z,35.40
2018-03-07T12:21:04.116Z,40.60
2018-03-07T12:22:04.017Z,41.40
2018-03-07T12:23:03.909Z,40.30
2018-03-07T12:24:03.806Z,40.00
2018-03-07T12:25:03.702Z,44.10
2018-03-07T12:26:03.604Z,43.30
2018-03-07T12:27:03.498Z,49.90
2018-03-07T12:28:03.397Z,48.40
2018-03-07T12:29:03.289Z,44.00
2018-03-07T12:30:03.190Z,48.50
2018-03-07T12:31:03.094Z,45.70
2018-03-07T12:32:02.996Z,48.80
2018-03-07T12:33:02.889Z,51.30
2018-03-07T12:34:02.785Z,47.90